sensor_id;sensor_type;location;lat;lon;timestamp;P1;durP1;ratioP1;P2;durP2;ratioP2
769;SDS011;368;48.698;9.116;2024-02-28T00:01:12;22.53;;;17.50;;
769;SDS011;368;48.698;9.116;2024-02-28T00:03:39;19.87;;;15.93;;
769;SDS011;368;48.698;9.116;2024-02-28T00:06:06;26.10;;;17.60;;
769;SDS011;368;48.698;9.116;2024-02-28T00:08:32;20.30;;;15.90;;
769;SDS011;368;48.698;9.116;2024-02-28T00:11:01;20.87;;;15.97;;
769;SDS011;368;48.698;9.116;2024-02-28T00:13:28;22.03;;;16.57;;
769;SDS011;368;48.698;9.116;2024-02-28T00:15:55;28.17;;;16.93;;
769;SDS011;368;48.698;9.116;2024-02-28T00:18:22;20.43;;;15.30;;
769;SDS011;368;48.698;9.116;2024-02-28T00:20:49;22.10;;;16.10;;
769;SDS011;368;48.698;9.116;2024-02-28T00:23:16;22.70;;;15.57;;
769;SDS011;368;48.698;9.116;2024-02-28T00:25:42;20.37;;;15.57;;
769;SDS011;368;48.698;9.116;2024-02-28T00:28:11;23.57;;;15.50;;
769;SDS011;368;48.698;9.116;2024-02-28T00:30:37;23.67;;;15.77;;
769;SDS011;368;48.698;9.116;2024-02-28T00:33:05;22.20;;;16.50;;
769;SDS011;368;48.698;9.116;2024-02-28T00:35:32;20.80;;;16.40;;
769;SDS011;368;48.698;9.116;2024-02-28T00:37:59;21.47;;;15.40;;
769;SDS011;368;48.698;9.116;2024-02-28T00:40:25;24.63;;;16.43;;
769;SDS011;368;48.698;9.116;2024-02-28T00:42:53;23.47;;;17.70;;
769;SDS011;368;48.698;9.116;2024-02-28T00:45:21;18.60;;;13.60;;
769;SDS011;368;48.698;9.116;2024-02-28T00:47:48;22.70;;;15.87;;
769;SDS011;368;48.698;9.116;2024-02-28T00:50:15;23.47;;;15.80;;
769;SDS011;368;48.698;9.116;2024-02-28T00:52:42;22.23;;;15.63;;
769;SDS011;368;48.698;9.116;2024-02-28T00:55:09;20.70;;;15.20;;
769;SDS011;368;48.698;9.116;2024-02-28T00:57:35;21.37;;;15.57;;
769;SDS011;368;48.698;9.116;2024-02-28T01:00:02;23.60;;;17.80;;
769;SDS011;368;48.698;9.116;2024-02-28T01:02:32;21.63;;;16.47;;
769;SDS011;368;48.698;9.116;2024-02-28T01:04:59;22.50;;;16.60;;
769;SDS011;368;48.698;9.116;2024-02-28T01:07:26;25.50;;;18.47;;
769;SDS011;368;48.698;9.116;2024-02-28T01:09:53;25.67;;;17.57;;
769;SDS011;368;48.698;9.116;2024-02-28T01:12:20;25.93;;;18.40;;
769;SDS011;368;48.698;9.116;2024-02-28T01:14:47;24.33;;;17.20;;
769;SDS011;368;48.698;9.116;2024-02-28T01:17:14;23.70;;;17.57;;
769;SDS011;368;48.698;9.116;2024-02-28T01:19:42;24.73;;;17.00;;
769;SDS011;368;48.698;9.116;2024-02-28T01:22:08;23.03;;;16.40;;
769;SDS011;368;48.698;9.116;2024-02-28T01:24:35;25.40;;;16.43;;
769;SDS011;368;48.698;9.116;2024-02-28T01:27:02;26.07;;;16.97;;
769;SDS011;368;48.698;9.116;2024-02-28T01:29:29;23.17;;;16.70;;
769;SDS011;368;48.698;9.116;2024-02-28T01:31:56;22.97;;;16.07;;
769;SDS011;368;48.698;9.116;2024-02-28T01:34:22;27.30;;;17.00;;
769;SDS011;368;48.698;9.116;2024-02-28T01:36:50;26.87;;;18.20;;
769;SDS011;368;48.698;9.116;2024-02-28T01:39:17;27.33;;;17.23;;
769;SDS011;368;48.698;9.116;2024-02-28T01:41:50;27.10;;;18.17;;
769;SDS011;368;48.698;9.116;2024-02-28T01:44:17;25.00;;;17.67;;
769;SDS011;368;48.698;9.116;2024-02-28T01:46:44;25.93;;;17.27;;
769;SDS011;368;48.698;9.116;2024-02-28T01:49:12;24.10;;;16.50;;
769;SDS011;368;48.698;9.116;2024-02-28T01:51:40;24.23;;;15.40;;
769;SDS011;368;48.698;9.116;2024-02-28T01:54:09;25.27;;;17.10;;
769;SDS011;368;48.698;9.116;2024-02-28T01:56:36;27.23;;;16.97;;
769;SDS011;368;48.698;9.116;2024-02-28T01:59:04;25.30;;;18.23;;
769;SDS011;368;48.698;9.116;2024-02-28T02:01:31;24.37;;;17.67;;
769;SDS011;368;48.698;9.116;2024-02-28T02:03:58;25.37;;;17.43;;
769;SDS011;368;48.698;9.116;2024-02-28T02:06:25;24.60;;;17.07;;
769;SDS011;368;48.698;9.116;2024-02-28T02:08:52;20.80;;;15.67;;
769;SDS011;368;48.698;9.116;2024-02-28T02:11:20;22.40;;;15.33;;
769;SDS011;368;48.698;9.116;2024-02-28T02:13:48;22.13;;;16.60;;
769;SDS011;368;48.698;9.116;2024-02-28T02:16:15;28.67;;;18.47;;
769;SDS011;368;48.698;9.116;2024-02-28T02:18:42;23.13;;;17.00;;
769;SDS011;368;48.698;9.116;2024-02-28T02:21:09;23.83;;;18.50;;
769;SDS011;368;48.698;9.116;2024-02-28T02:23:40;26.13;;;17.97;;
769;SDS011;368;48.698;9.116;2024-02-28T02:26:07;23.07;;;16.63;;
769;SDS011;368;48.698;9.116;2024-02-28T02:28:33;28.97;;;19.60;;
769;SDS011;368;48.698;9.116;2024-02-28T02:31:00;26.70;;;18.37;;
769;SDS011;368;48.698;9.116;2024-02-28T02:33:27;27.40;;;19.00;;
769;SDS011;368;48.698;9.116;2024-02-28T02:35:54;26.47;;;20.23;;
769;SDS011;368;48.698;9.116;2024-02-28T02:38:21;32.70;;;18.93;;
769;SDS011;368;48.698;9.116;2024-02-28T02:40:49;29.60;;;19.57;;
769;SDS011;368;48.698;9.116;2024-02-28T02:43:16;25.20;;;20.17;;
769;SDS011;368;48.698;9.116;2024-02-28T02:45:43;29.30;;;19.47;;
769;SDS011;368;48.698;9.116;2024-02-28T02:48:10;27.00;;;18.67;;
769;SDS011;368;48.698;9.116;2024-02-28T02:50:37;27.83;;;18.93;;
769;SDS011;368;48.698;9.116;2024-02-28T02:53:04;28.90;;;19.83;;
769;SDS011;368;48.698;9.116;2024-02-28T02:55:32;29.90;;;19.77;;
769;SDS011;368;48.698;9.116;2024-02-28T02:58:00;25.07;;;17.97;;
769;SDS011;368;48.698;9.116;2024-02-28T03:00:28;29.73;;;19.23;;
769;SDS011;368;48.698;9.116;2024-02-28T03:02:55;27.00;;;18.27;;
769;SDS011;368;48.698;9.116;2024-02-28T03:05:21;28.07;;;20.37;;
769;SDS011;368;48.698;9.116;2024-02-28T03:07:48;27.00;;;19.87;;
769;SDS011;368;48.698;9.116;2024-02-28T03:10:15;24.13;;;17.97;;
769;SDS011;368;48.698;9.116;2024-02-28T03:12:42;25.63;;;18.73;;
769;SDS011;368;48.698;9.116;2024-02-28T03:15:10;29.83;;;19.20;;
769;SDS011;368;48.698;9.116;2024-02-28T03:17:37;24.67;;;17.77;;
769;SDS011;368;48.698;9.116;2024-02-28T03:20:04;25.67;;;19.17;;
769;SDS011;368;48.698;9.116;2024-02-28T03:22:32;28.20;;;18.40;;
769;SDS011;368;48.698;9.116;2024-02-28T03:24:58;27.83;;;19.63;;
769;SDS011;368;48.698;9.116;2024-02-28T03:27:25;23.83;;;17.67;;
769;SDS011;368;48.698;9.116;2024-02-28T03:29:52;27.50;;;17.80;;
769;SDS011;368;48.698;9.116;2024-02-28T03:32:20;27.20;;;18.60;;
769;SDS011;368;48.698;9.116;2024-02-28T03:34:47;29.10;;;19.63;;
769;SDS011;368;48.698;9.116;2024-02-28T03:37:14;27.90;;;19.17;;
769;SDS011;368;48.698;9.116;2024-02-28T03:39:41;28.37;;;19.63;;
769;SDS011;368;48.698;9.116;2024-02-28T03:42:07;29.93;;;19.60;;
769;SDS011;368;48.698;9.116;2024-02-28T03:44:34;27.73;;;20.00;;
769;SDS011;368;48.698;9.116;2024-02-28T03:47:01;26.50;;;17.83;;
769;SDS011;368;48.698;9.116;2024-02-28T03:49:29;25.87;;;18.00;;
769;SDS011;368;48.698;9.116;2024-02-28T03:51:56;26.97;;;19.27;;
769;SDS011;368;48.698;9.116;2024-02-28T03:54:23;26.60;;;19.17;;
769;SDS011;368;48.698;9.116;2024-02-28T03:56:49;25.10;;;17.90;;
769;SDS011;368;48.698;9.116;2024-02-28T03:59:16;29.13;;;19.90;;
769;SDS011;368;48.698;9.116;2024-02-28T04:01:43;25.13;;;19.70;;
769;SDS011;368;48.698;9.116;2024-02-28T04:04:10;27.60;;;17.90;;
769;SDS011;368;48.698;9.116;2024-02-28T04:06:38;28.30;;;18.03;;
769;SDS011;368;48.698;9.116;2024-02-28T04:09:05;27.47;;;19.30;;
769;SDS011;368;48.698;9.116;2024-02-28T04:11:33;28.50;;;18.80;;
769;SDS011;368;48.698;9.116;2024-02-28T04:14:00;25.40;;;18.50;;
769;SDS011;368;48.698;9.116;2024-02-28T04:16:26;32.67;;;18.93;;
769;SDS011;368;48.698;9.116;2024-02-28T04:18:53;29.27;;;19.90;;
769;SDS011;368;48.698;9.116;2024-02-28T04:21:20;26.43;;;18.67;;
769;SDS011;368;48.698;9.116;2024-02-28T04:23:48;24.40;;;18.67;;
769;SDS011;368;48.698;9.116;2024-02-28T04:26:15;31.83;;;19.43;;
769;SDS011;368;48.698;9.116;2024-02-28T04:28:42;30.40;;;19.67;;
769;SDS011;368;48.698;9.116;2024-02-28T04:31:09;29.07;;;20.50;;
769;SDS011;368;48.698;9.116;2024-02-28T04:33:36;25.30;;;18.10;;
769;SDS011;368;48.698;9.116;2024-02-28T04:36:03;29.43;;;20.73;;
769;SDS011;368;48.698;9.116;2024-02-28T04:38:31;31.13;;;20.37;;
769;SDS011;368;48.698;9.116;2024-02-28T04:40:59;32.57;;;19.57;;
769;SDS011;368;48.698;9.116;2024-02-28T04:43:26;27.10;;;18.37;;
769;SDS011;368;48.698;9.116;2024-02-28T04:45:52;28.77;;;19.90;;
769;SDS011;368;48.698;9.116;2024-02-28T04:48:19;26.13;;;19.10;;
769;SDS011;368;48.698;9.116;2024-02-28T04:50:46;26.97;;;17.93;;
769;SDS011;368;48.698;9.116;2024-02-28T04:53:13;26.33;;;18.70;;
769;SDS011;368;48.698;9.116;2024-02-28T04:55:40;23.20;;;17.43;;
769;SDS011;368;48.698;9.116;2024-02-28T04:58:08;28.17;;;19.30;;
769;SDS011;368;48.698;9.116;2024-02-28T05:00:35;29.40;;;18.00;;
769;SDS011;368;48.698;9.116;2024-02-28T05:03:02;26.57;;;19.47;;
769;SDS011;368;48.698;9.116;2024-02-28T05:05:29;24.77;;;17.97;;
769;SDS011;368;48.698;9.116;2024-02-28T05:07:56;24.30;;;18.10;;
769;SDS011;368;48.698;9.116;2024-02-28T05:10:22;26.97;;;19.10;;
769;SDS011;368;48.698;9.116;2024-02-28T05:12:49;27.60;;;18.00;;
769;SDS011;368;48.698;9.116;2024-02-28T05:15:17;28.23;;;17.97;;
769;SDS011;368;48.698;9.116;2024-02-28T05:17:44;29.13;;;17.87;;
769;SDS011;368;48.698;9.116;2024-02-28T05:20:11;25.13;;;18.00;;
769;SDS011;368;48.698;9.116;2024-02-28T05:22:40;25.80;;;17.90;;
769;SDS011;368;48.698;9.116;2024-02-28T05:25:07;26.37;;;17.73;;
769;SDS011;368;48.698;9.116;2024-02-28T05:27:34;26.60;;;18.23;;
769;SDS011;368;48.698;9.116;2024-02-28T05:30:01;24.77;;;17.07;;
769;SDS011;368;48.698;9.116;2024-02-28T05:32:32;25.67;;;18.10;;
769;SDS011;368;48.698;9.116;2024-02-28T05:34:58;28.80;;;19.57;;
769;SDS011;368;48.698;9.116;2024-02-28T05:37:24;25.07;;;17.00;;
769;SDS011;368;48.698;9.116;2024-02-28T05:39:51;28.70;;;19.03;;
769;SDS011;368;48.698;9.116;2024-02-28T05:42:18;24.40;;;17.43;;
769;SDS011;368;48.698;9.116;2024-02-28T05:44:47;27.17;;;18.50;;
769;SDS011;368;48.698;9.116;2024-02-28T05:47:14;26.27;;;17.70;;
769;SDS011;368;48.698;9.116;2024-02-28T05:49:42;27.30;;;18.93;;
769;SDS011;368;48.698;9.116;2024-02-28T05:52:09;23.60;;;16.80;;
769;SDS011;368;48.698;9.116;2024-02-28T05:54:36;27.90;;;18.70;;
769;SDS011;368;48.698;9.116;2024-02-28T05:57:03;28.27;;;18.97;;
769;SDS011;368;48.698;9.116;2024-02-28T05:59:30;29.60;;;18.23;;
769;SDS011;368;48.698;9.116;2024-02-28T06:01:57;29.10;;;17.87;;
769;SDS011;368;48.698;9.116;2024-02-28T06:04:24;26.17;;;18.53;;
769;SDS011;368;48.698;9.116;2024-02-28T06:06:52;28.70;;;19.77;;
769;SDS011;368;48.698;9.116;2024-02-28T06:09:19;25.50;;;18.90;;
769;SDS011;368;48.698;9.116;2024-02-28T06:11:45;30.40;;;19.07;;
769;SDS011;368;48.698;9.116;2024-02-28T06:14:12;26.33;;;17.53;;
769;SDS011;368;48.698;9.116;2024-02-28T06:16:40;28.60;;;19.30;;
769;SDS011;368;48.698;9.116;2024-02-28T06:19:06;30.70;;;19.80;;
769;SDS011;368;48.698;9.116;2024-02-28T06:21:33;28.40;;;19.13;;
769;SDS011;368;48.698;9.116;2024-02-28T06:24:01;25.77;;;18.37;;
769;SDS011;368;48.698;9.116;2024-02-28T06:26:29;30.60;;;19.70;;
769;SDS011;368;48.698;9.116;2024-02-28T06:28:56;26.73;;;19.43;;
769;SDS011;368;48.698;9.116;2024-02-28T06:31:26;31.23;;;19.70;;
769;SDS011;368;48.698;9.116;2024-02-28T06:33:54;29.20;;;20.53;;
769;SDS011;368;48.698;9.116;2024-02-28T06:36:21;29.63;;;20.10;;
769;SDS011;368;48.698;9.116;2024-02-28T06:38:48;25.80;;;18.67;;
769;SDS011;368;48.698;9.116;2024-02-28T06:41:17;28.33;;;18.80;;
769;SDS011;368;48.698;9.116;2024-02-28T06:43:44;30.10;;;20.67;;
769;SDS011;368;48.698;9.116;2024-02-28T06:46:11;25.57;;;19.87;;
769;SDS011;368;48.698;9.116;2024-02-28T06:48:38;28.93;;;20.43;;
769;SDS011;368;48.698;9.116;2024-02-28T06:51:04;24.17;;;18.70;;
769;SDS011;368;48.698;9.116;2024-02-28T06:53:31;26.37;;;19.80;;
769;SDS011;368;48.698;9.116;2024-02-28T06:55:58;29.80;;;18.53;;
769;SDS011;368;48.698;9.116;2024-02-28T06:58:26;29.53;;;21.67;;
769;SDS011;368;48.698;9.116;2024-02-28T07:00:53;23.77;;;19.47;;
769;SDS011;368;48.698;9.116;2024-02-28T07:03:20;25.23;;;18.10;;
769;SDS011;368;48.698;9.116;2024-02-28T07:05:46;30.27;;;18.63;;
769;SDS011;368;48.698;9.116;2024-02-28T07:08:13;24.37;;;18.07;;
769;SDS011;368;48.698;9.116;2024-02-28T07:10:40;24.73;;;18.03;;
769;SDS011;368;48.698;9.116;2024-02-28T07:13:11;25.73;;;17.93;;
769;SDS011;368;48.698;9.116;2024-02-28T07:15:39;27.10;;;17.70;;
769;SDS011;368;48.698;9.116;2024-02-28T07:18:06;27.90;;;18.90;;
769;SDS011;368;48.698;9.116;2024-02-28T07:20:33;27.53;;;18.33;;
769;SDS011;368;48.698;9.116;2024-02-28T07:23:00;24.20;;;17.23;;
769;SDS011;368;48.698;9.116;2024-02-28T07:25:27;25.90;;;17.00;;
769;SDS011;368;48.698;9.116;2024-02-28T07:27:56;25.70;;;18.30;;
769;SDS011;368;48.698;9.116;2024-02-28T07:30:24;27.03;;;17.77;;
769;SDS011;368;48.698;9.116;2024-02-28T07:32:52;23.03;;;17.00;;
769;SDS011;368;48.698;9.116;2024-02-28T07:35:19;24.77;;;17.40;;
769;SDS011;368;48.698;9.116;2024-02-28T07:37:46;22.53;;;18.23;;
769;SDS011;368;48.698;9.116;2024-02-28T07:40:13;25.07;;;19.00;;
769;SDS011;368;48.698;9.116;2024-02-28T07:42:40;26.23;;;19.23;;
769;SDS011;368;48.698;9.116;2024-02-28T07:45:07;23.47;;;18.67;;
769;SDS011;368;48.698;9.116;2024-02-28T07:47:34;24.20;;;17.07;;
769;SDS011;368;48.698;9.116;2024-02-28T07:50:02;25.17;;;17.27;;
769;SDS011;368;48.698;9.116;2024-02-28T07:52:30;22.03;;;16.07;;
769;SDS011;368;48.698;9.116;2024-02-28T07:55:00;21.00;;;15.53;;
769;SDS011;368;48.698;9.116;2024-02-28T07:57:27;22.30;;;16.07;;
769;SDS011;368;48.698;9.116;2024-02-28T07:59:53;22.33;;;16.17;;
769;SDS011;368;48.698;9.116;2024-02-28T08:02:20;26.83;;;19.33;;
769;SDS011;368;48.698;9.116;2024-02-28T08:04:48;22.50;;;16.47;;
769;SDS011;368;48.698;9.116;2024-02-28T08:07:17;22.63;;;15.53;;
769;SDS011;368;48.698;9.116;2024-02-28T08:09:44;22.07;;;16.27;;
769;SDS011;368;48.698;9.116;2024-02-28T08:12:10;22.10;;;16.30;;
769;SDS011;368;48.698;9.116;2024-02-28T08:14:37;22.27;;;15.77;;
769;SDS011;368;48.698;9.116;2024-02-28T08:17:04;24.30;;;17.53;;
769;SDS011;368;48.698;9.116;2024-02-28T08:19:31;24.13;;;16.83;;
769;SDS011;368;48.698;9.116;2024-02-28T08:22:00;22.80;;;16.60;;
769;SDS011;368;48.698;9.116;2024-02-28T08:24:28;21.20;;;16.13;;
769;SDS011;368;48.698;9.116;2024-02-28T08:26:55;23.77;;;15.20;;
769;SDS011;368;48.698;9.116;2024-02-28T08:29:22;23.17;;;16.80;;
769;SDS011;368;48.698;9.116;2024-02-28T08:31:48;22.10;;;15.90;;
769;SDS011;368;48.698;9.116;2024-02-28T08:34:15;22.43;;;16.10;;
769;SDS011;368;48.698;9.116;2024-02-28T08:36:42;24.07;;;16.10;;
769;SDS011;368;48.698;9.116;2024-02-28T08:39:09;19.87;;;16.23;;
769;SDS011;368;48.698;9.116;2024-02-28T08:41:37;19.40;;;15.20;;
769;SDS011;368;48.698;9.116;2024-02-28T08:44:04;20.17;;;15.20;;
769;SDS011;368;48.698;9.116;2024-02-28T08:46:31;21.23;;;14.10;;
769;SDS011;368;48.698;9.116;2024-02-28T08:48:57;22.10;;;15.20;;
769;SDS011;368;48.698;9.116;2024-02-28T08:51:24;21.03;;;14.50;;
769;SDS011;368;48.698;9.116;2024-02-28T08:53:52;18.57;;;13.40;;
769;SDS011;368;48.698;9.116;2024-02-28T08:56:20;17.93;;;14.40;;
769;SDS011;368;48.698;9.116;2024-02-28T08:58:48;23.10;;;14.70;;
769;SDS011;368;48.698;9.116;2024-02-28T09:01:15;19.07;;;14.13;;
769;SDS011;368;48.698;9.116;2024-02-28T09:03:42;21.43;;;15.03;;
769;SDS011;368;48.698;9.116;2024-02-28T09:06:09;19.87;;;12.97;;
769;SDS011;368;48.698;9.116;2024-02-28T09:08:35;18.37;;;14.50;;
769;SDS011;368;48.698;9.116;2024-02-28T09:11:02;18.23;;;14.87;;
769;SDS011;368;48.698;9.116;2024-02-28T09:13:30;23.20;;;15.13;;
769;SDS011;368;48.698;9.116;2024-02-28T09:15:58;17.40;;;12.87;;
769;SDS011;368;48.698;9.116;2024-02-28T09:18:25;16.80;;;12.67;;
769;SDS011;368;48.698;9.116;2024-02-28T09:20:52;20.83;;;14.70;;
769;SDS011;368;48.698;9.116;2024-02-28T09:23:18;21.40;;;13.93;;
769;SDS011;368;48.698;9.116;2024-02-28T09:25:46;19.47;;;14.70;;
769;SDS011;368;48.698;9.116;2024-02-28T09:28:13;20.30;;;16.23;;
769;SDS011;368;48.698;9.116;2024-02-28T09:30:41;21.20;;;14.27;;
769;SDS011;368;48.698;9.116;2024-02-28T09:33:09;18.63;;;14.00;;
769;SDS011;368;48.698;9.116;2024-02-28T09:35:37;20.70;;;16.57;;
769;SDS011;368;48.698;9.116;2024-02-28T09:38:03;19.20;;;14.17;;
769;SDS011;368;48.698;9.116;2024-02-28T09:40:30;22.00;;;17.43;;
769;SDS011;368;48.698;9.116;2024-02-28T09:42:59;21.73;;;15.30;;
769;SDS011;368;48.698;9.116;2024-02-28T09:45:27;24.17;;;16.93;;
769;SDS011;368;48.698;9.116;2024-02-28T09:47:55;24.67;;;17.13;;
769;SDS011;368;48.698;9.116;2024-02-28T09:50:24;26.67;;;17.47;;
769;SDS011;368;48.698;9.116;2024-02-28T09:52:52;25.03;;;16.80;;
769;SDS011;368;48.698;9.116;2024-02-28T09:55:19;23.50;;;17.37;;
769;SDS011;368;48.698;9.116;2024-02-28T09:57:46;20.90;;;16.07;;
769;SDS011;368;48.698;9.116;2024-02-28T10:00:14;27.80;;;21.38;;
769;SDS011;368;48.698;9.116;2024-02-28T10:02:45;29.00;;;18.70;;
769;SDS011;368;48.698;9.116;2024-02-28T10:05:14;28.57;;;19.80;;
769;SDS011;368;48.698;9.116;2024-02-28T10:07:44;24.03;;;18.90;;
769;SDS011;368;48.698;9.116;2024-02-28T10:10:11;24.43;;;16.93;;
769;SDS011;368;48.698;9.116;2024-02-28T10:12:40;26.77;;;18.17;;
769;SDS011;368;48.698;9.116;2024-02-28T10:15:07;25.60;;;17.00;;
769;SDS011;368;48.698;9.116;2024-02-28T10:17:35;21.97;;;15.20;;
769;SDS011;368;48.698;9.116;2024-02-28T10:20:02;24.97;;;17.40;;
769;SDS011;368;48.698;9.116;2024-02-28T10:22:33;23.70;;;17.80;;
769;SDS011;368;48.698;9.116;2024-02-28T10:25:02;22.40;;;16.77;;
769;SDS011;368;48.698;9.116;2024-02-28T10:27:31;24.27;;;15.77;;
769;SDS011;368;48.698;9.116;2024-02-28T10:29:58;23.60;;;15.93;;
769;SDS011;368;48.698;9.116;2024-02-28T10:32:26;25.40;;;16.33;;
769;SDS011;368;48.698;9.116;2024-02-28T10:34:53;23.17;;;17.27;;
769;SDS011;368;48.698;9.116;2024-02-28T10:37:20;20.90;;;15.23;;
769;SDS011;368;48.698;9.116;2024-02-28T10:39:48;21.33;;;14.73;;
769;SDS011;368;48.698;9.116;2024-02-28T10:42:19;21.67;;;15.30;;
769;SDS011;368;48.698;9.116;2024-02-28T10:44:49;23.80;;;15.20;;
769;SDS011;368;48.698;9.116;2024-02-28T10:47:17;20.40;;;15.43;;
769;SDS011;368;48.698;9.116;2024-02-28T10:49:44;24.53;;;16.70;;
769;SDS011;368;48.698;9.116;2024-02-28T10:52:11;20.57;;;16.57;;
769;SDS011;368;48.698;9.116;2024-02-28T10:54:40;21.17;;;15.20;;
769;SDS011;368;48.698;9.116;2024-02-28T10:57:09;22.07;;;15.47;;
769;SDS011;368;48.698;9.116;2024-02-28T10:59:40;19.37;;;14.67;;
769;SDS011;368;48.698;9.116;2024-02-28T11:02:10;25.67;;;15.77;;
769;SDS011;368;48.698;9.116;2024-02-28T11:04:37;19.77;;;15.30;;
769;SDS011;368;48.698;9.116;2024-02-28T11:07:05;26.00;;;16.23;;
769;SDS011;368;48.698;9.116;2024-02-28T11:09:33;23.80;;;17.00;;
769;SDS011;368;48.698;9.116;2024-02-28T11:12:00;20.37;;;14.47;;
769;SDS011;368;48.698;9.116;2024-02-28T11:14:31;21.20;;;16.53;;
769;SDS011;368;48.698;9.116;2024-02-28T11:17:02;22.53;;;16.57;;
769;SDS011;368;48.698;9.116;2024-02-28T11:19:30;20.50;;;15.07;;
769;SDS011;368;48.698;9.116;2024-02-28T11:21:58;22.80;;;16.23;;
769;SDS011;368;48.698;9.116;2024-02-28T11:24:29;24.37;;;17.03;;
769;SDS011;368;48.698;9.116;2024-02-28T11:26:56;19.63;;;14.53;;
769;SDS011;368;48.698;9.116;2024-02-28T11:29:24;19.33;;;14.97;;
769;SDS011;368;48.698;9.116;2024-02-28T11:31:51;23.27;;;16.67;;
769;SDS011;368;48.698;9.116;2024-02-28T11:34:19;21.63;;;15.50;;
769;SDS011;368;48.698;9.116;2024-02-28T11:36:47;23.97;;;15.27;;
769;SDS011;368;48.698;9.116;2024-02-28T11:39:15;22.73;;;16.30;;
769;SDS011;368;48.698;9.116;2024-02-28T11:41:42;23.07;;;16.37;;
769;SDS011;368;48.698;9.116;2024-02-28T11:44:11;21.53;;;16.47;;
769;SDS011;368;48.698;9.116;2024-02-28T11:46:42;22.30;;;16.00;;
769;SDS011;368;48.698;9.116;2024-02-28T11:49:09;23.07;;;15.50;;
769;SDS011;368;48.698;9.116;2024-02-28T11:51:38;25.03;;;17.20;;
769;SDS011;368;48.698;9.116;2024-02-28T11:54:06;24.07;;;16.00;;
769;SDS011;368;48.698;9.116;2024-02-28T11:56:33;22.63;;;17.07;;
769;SDS011;368;48.698;9.116;2024-02-28T11:59:00;24.30;;;17.07;;
769;SDS011;368;48.698;9.116;2024-02-28T12:01:35;22.57;;;16.33;;
769;SDS011;368;48.698;9.116;2024-02-28T12:04:03;22.30;;;16.00;;
769;SDS011;368;48.698;9.116;2024-02-28T12:06:31;25.47;;;18.30;;
769;SDS011;368;48.698;9.116;2024-02-28T12:09:01;21.40;;;14.13;;
769;SDS011;368;48.698;9.116;2024-02-28T12:11:29;24.60;;;16.57;;
769;SDS011;368;48.698;9.116;2024-02-28T12:13:56;21.17;;;15.53;;
769;SDS011;368;48.698;9.116;2024-02-28T12:16:23;22.70;;;15.97;;
769;SDS011;368;48.698;9.116;2024-02-28T12:18:51;21.53;;;16.97;;
769;SDS011;368;48.698;9.116;2024-02-28T12:21:18;21.20;;;16.43;;
769;SDS011;368;48.698;9.116;2024-02-28T12:23:45;21.67;;;15.70;;
769;SDS011;368;48.698;9.116;2024-02-28T12:26:16;21.97;;;15.23;;
769;SDS011;368;48.698;9.116;2024-02-28T12:28:43;25.90;;;16.73;;
769;SDS011;368;48.698;9.116;2024-02-28T12:31:10;23.33;;;15.00;;
769;SDS011;368;48.698;9.116;2024-02-28T12:33:38;21.80;;;14.60;;
769;SDS011;368;48.698;9.116;2024-02-28T12:36:05;21.90;;;16.10;;
769;SDS011;368;48.698;9.116;2024-02-28T12:38:32;22.27;;;15.83;;
769;SDS011;368;48.698;9.116;2024-02-28T12:40:59;22.63;;;16.10;;
769;SDS011;368;48.698;9.116;2024-02-28T12:43:29;26.50;;;17.30;;
769;SDS011;368;48.698;9.116;2024-02-28T12:45:56;26.07;;;17.37;;
769;SDS011;368;48.698;9.116;2024-02-28T12:48:23;24.80;;;17.30;;
769;SDS011;368;48.698;9.116;2024-02-28T12:50:50;27.23;;;18.33;;
769;SDS011;368;48.698;9.116;2024-02-28T12:53:17;23.07;;;15.80;;
769;SDS011;368;48.698;9.116;2024-02-28T12:55:44;27.00;;;19.13;;
769;SDS011;368;48.698;9.116;2024-02-28T12:58:11;26.90;;;17.47;;
769;SDS011;368;48.698;9.116;2024-02-28T13:00:39;26.60;;;15.83;;
769;SDS011;368;48.698;9.116;2024-02-28T13:03:06;21.90;;;17.07;;
769;SDS011;368;48.698;9.116;2024-02-28T13:05:33;25.17;;;16.10;;
769;SDS011;368;48.698;9.116;2024-02-28T13:08:00;21.47;;;15.77;;
769;SDS011;368;48.698;9.116;2024-02-28T13:10:27;22.17;;;15.93;;
769;SDS011;368;48.698;9.116;2024-02-28T13:12:54;22.90;;;16.67;;
769;SDS011;368;48.698;9.116;2024-02-28T13:15:20;22.60;;;16.30;;
769;SDS011;368;48.698;9.116;2024-02-28T13:17:49;22.20;;;15.93;;
769;SDS011;368;48.698;9.116;2024-02-28T13:20:17;21.10;;;16.77;;
769;SDS011;368;48.698;9.116;2024-02-28T13:22:43;22.03;;;16.23;;
769;SDS011;368;48.698;9.116;2024-02-28T13:25:10;18.80;;;14.30;;
769;SDS011;368;48.698;9.116;2024-02-28T13:27:39;23.37;;;16.70;;
769;SDS011;368;48.698;9.116;2024-02-28T13:30:06;22.70;;;15.87;;
769;SDS011;368;48.698;9.116;2024-02-28T13:32:33;21.63;;;16.13;;
769;SDS011;368;48.698;9.116;2024-02-28T13:35:02;27.90;;;17.17;;
769;SDS011;368;48.698;9.116;2024-02-28T13:37:29;24.30;;;16.20;;
769;SDS011;368;48.698;9.116;2024-02-28T13:39:56;22.20;;;16.10;;
769;SDS011;368;48.698;9.116;2024-02-28T13:42:22;18.40;;;13.90;;
769;SDS011;368;48.698;9.116;2024-02-28T13:44:49;21.00;;;15.80;;
769;SDS011;368;48.698;9.116;2024-02-28T13:47:16;24.37;;;16.33;;
769;SDS011;368;48.698;9.116;2024-02-28T13:49:43;26.83;;;16.60;;
769;SDS011;368;48.698;9.116;2024-02-28T13:52:11;26.27;;;16.30;;
769;SDS011;368;48.698;9.116;2024-02-28T13:54:38;24.13;;;17.07;;
769;SDS011;368;48.698;9.116;2024-02-28T13:57:05;23.87;;;16.77;;
769;SDS011;368;48.698;9.116;2024-02-28T13:59:32;23.90;;;16.20;;
769;SDS011;368;48.698;9.116;2024-02-28T14:01:59;18.63;;;14.83;;
769;SDS011;368;48.698;9.116;2024-02-28T14:04:25;22.47;;;16.63;;
769;SDS011;368;48.698;9.116;2024-02-28T14:06:51;24.00;;;16.53;;
769;SDS011;368;48.698;9.116;2024-02-28T14:09:20;25.60;;;16.40;;
769;SDS011;368;48.698;9.116;2024-02-28T14:11:46;21.70;;;15.30;;
769;SDS011;368;48.698;9.116;2024-02-28T14:14:13;26.33;;;14.60;;
769;SDS011;368;48.698;9.116;2024-02-28T14:16:40;23.73;;;15.67;;
769;SDS011;368;48.698;9.116;2024-02-28T14:19:08;25.50;;;16.80;;
769;SDS011;368;48.698;9.116;2024-02-28T14:21:35;21.20;;;15.50;;
769;SDS011;368;48.698;9.116;2024-02-28T14:24:01;23.57;;;16.40;;
769;SDS011;368;48.698;9.116;2024-02-28T14:26:30;23.20;;;16.40;;
769;SDS011;368;48.698;9.116;2024-02-28T14:28:57;19.03;;;14.30;;
769;SDS011;368;48.698;9.116;2024-02-28T14:31:24;24.30;;;17.03;;
769;SDS011;368;48.698;9.116;2024-02-28T14:33:51;24.83;;;16.40;;
769;SDS011;368;48.698;9.116;2024-02-28T14:36:19;19.23;;;15.50;;
769;SDS011;368;48.698;9.116;2024-02-28T14:38:46;20.70;;;14.90;;
769;SDS011;368;48.698;9.116;2024-02-28T14:41:13;23.67;;;14.30;;
769;SDS011;368;48.698;9.116;2024-02-28T14:43:41;20.07;;;15.20;;
769;SDS011;368;48.698;9.116;2024-02-28T14:46:09;22.23;;;15.03;;
769;SDS011;368;48.698;9.116;2024-02-28T14:48:36;21.10;;;15.20;;
769;SDS011;368;48.698;9.116;2024-02-28T14:51:02;19.17;;;12.97;;
769;SDS011;368;48.698;9.116;2024-02-28T14:53:29;22.70;;;15.13;;
769;SDS011;368;48.698;9.116;2024-02-28T14:55:56;23.40;;;16.30;;
769;SDS011;368;48.698;9.116;2024-02-28T14:58:23;26.30;;;18.67;;
769;SDS011;368;48.698;9.116;2024-02-28T15:00:51;20.10;;;15.63;;
769;SDS011;368;48.698;9.116;2024-02-28T15:03:19;20.73;;;15.83;;
769;SDS011;368;48.698;9.116;2024-02-28T15:05:46;21.60;;;15.07;;
769;SDS011;368;48.698;9.116;2024-02-28T15:08:14;22.13;;;15.60;;
769;SDS011;368;48.698;9.116;2024-02-28T15:10:41;23.17;;;16.43;;
769;SDS011;368;48.698;9.116;2024-02-28T15:13:08;20.90;;;15.47;;
769;SDS011;368;48.698;9.116;2024-02-28T15:15:35;25.00;;;16.77;;